Time;durP1;ratioP1;P1;durP2;ratioP2;P2;SDS_P1;SDS_P2;PMS_P1;PMS_P2;Temp;Humidity;BMP_temperature;BMP_pressure;BME280_temperature;BME280_humidity;BME280_pressure;Samples;Min_cycle;Max_cycle;Signal;HPM_P1;HPM_P2
2022/06/21 00:03:42;;;;;;;2.85;1.70;;;;;12.10;96315.00;;;;8322315;28;20294;-71
2022/06/21 00:07:45;;;;;;;2.03;1.80;;;;;12.10;96313.00;;;;8327925;28;20253;-73
2022/06/21 00:11:48;;;;;;;1.60;1.50;;;;;12.00;96318.00;;;;8320173;28;20289;-71
2022/06/21 00:15:56;;;;;;;3.13;1.77;;;;;11.90;96318.00;;;;8323102;28;20213;-72
2022/06/21 00:19:59;;;;;;;4.10;1.90;;;;;11.70;96313.00;;;;8322872;28;20190;-72
2022/06/21 00:24:03;;;;;;;1.57;1.40;;;;;11.40;96315.00;;;;8321675;28;20284;-73
2022/06/21 00:28:07;;;;;;;2.30;1.60;;;;;11.40;96315.00;;;;8319621;28;20614;-72
2022/06/21 00:32:20;;;;;;;2.57;1.80;;;;;11.40;96318.00;;;;8325370;28;20189;-73
2022/06/21 00:36:27;;;;;;;1.92;1.83;;;;;11.30;96313.00;;;;8321525;28;20222;-71
2022/06/21 00:40:32;;;;;;;4.40;2.20;;;;;11.30;96321.00;;;;8314899;28;20276;-73
2022/06/21 00:44:40;;;;;;;6.20;1.97;;;;;11.20;96321.00;;;;8320862;28;20288;-73
2022/06/21 00:48:46;;;;;;;5.22;1.90;;;;;11.20;96309.00;;;;8321241;28;20288;-72
2022/06/21 00:52:56;;;;;;;1.87;1.77;;;;;11.20;96312.00;;;;8321230;28;20212;-72
2022/06/21 00:57:04;;;;;;;3.37;2.00;;;;;11.10;96307.00;;;;8321643;28;20217;-73
2022/06/21 01:01:15;;;;;;;2.20;1.80;;;;;11.00;96306.00;;;;8320275;28;20190;-72
2022/06/21 01:05:21;;;;;;;4.50;2.10;;;;;10.80;96301.00;;;;8324925;28;20264;-73
2022/06/21 01:09:28;;;;;;;6.60;1.90;;;;;10.70;96304.00;;;;8318514;28;20292;-72
2022/06/21 01:13:35;;;;;;;6.73;1.80;;;;;10.60;96312.00;;;;8312186;28;20199;-73
2022/06/21 01:17:38;;;;;;;2.90;2.00;;;;;10.50;96300.00;;;;8321112;28;20232;-72
2022/06/21 01:21:47;;;;;;;2.87;1.90;;;;;10.60;96295.00;;;;8321060;28;20747;-72
2022/06/21 01:25:57;;;;;;;3.80;2.07;;;;;10.40;96292.00;;;;8322447;28;20215;-71
2022/06/21 01:30:02;;;;;;;2.23;1.83;;;;;10.30;96292.00;;;;8320202;28;20562;-72
2022/06/21 01:34:10;;;;;;;5.93;2.07;;;;;10.20;96290.00;;;;8318744;28;20311;-72
2022/06/21 01:38:20;;;;;;;3.57;1.80;;;;;10.20;96295.00;;;;8322321;28;20231;-73
2022/06/21 01:42:28;;;;;;;3.93;3.03;;;;;10.10;96294.00;;;;8326763;28;20190;-73
2022/06/21 01:46:34;;;;;;;4.00;2.00;;;;;10.00;96298.00;;;;8321322;28;20280;-73
2022/06/21 01:50:39;;;;;;;4.13;2.10;;;;;9.80;96294.00;;;;8325195;28;20208;-72
2022/06/21 01:54:47;;;;;;;10.17;2.20;;;;;9.70;96292.00;;;;8325520;28;20220;-72
2022/06/21 01:58:56;;;;;;;4.20;1.80;;;;;9.70;96295.00;;;;8322028;28;20750;-73
2022/06/21 02:03:08;;;;;;;5.03;2.30;;;;;9.60;96281.00;;;;8325709;28;20231;-72
2022/06/21 02:07:19;;;;;;;3.63;2.23;;;;;9.70;96286.00;;;;8323565;28;20204;-71
2022/06/21 02:11:25;;;;;;;4.07;2.10;;;;;9.70;96286.00;;;;8325665;28;20228;-72
2022/06/21 02:15:35;;;;;;;2.57;2.33;;;;;9.50;96277.00;;;;8326365;28;20281;-72
2022/06/21 02:19:43;;;;;;;18.77;2.57;;;;;9.50;96268.00;;;;8319818;28;20663;-71
2022/06/21 02:23:51;;;;;;;23.37;3.23;;;;;9.30;96267.00;;;;8328177;28;20251;-72
2022/06/21 02:28:03;;;;;;;2.67;2.27;;;;;9.40;96265.00;;;;8321383;28;20724;-72
2022/06/21 02:32:15;;;;;;;2.23;2.03;;;;;9.50;96264.00;;;;8324740;28;20290;-72
2022/06/21 02:36:25;;;;;;;2.13;1.93;;;;;9.60;96272.00;;;;8326169;28;20742;-72
2022/06/21 02:40:31;;;;;;;3.33;2.30;;;;;9.40;96266.00;;;;8317951;28;20273;-71
2022/06/21 02:44:39;;;;;;;2.50;2.10;;;;;9.40;96266.00;;;;8322693;28;20210;-72
2022/06/21 02:48:45;;;;;;;6.47;2.30;;;;;9.60;96263.00;;;;8325188;28;20211;-71
2022/06/21 02:52:53;;;;;;;2.77;2.50;;;;;9.50;96264.00;;;;8322256;28;20193;-71
2022/06/21 02:57:01;;;;;;;3.37;2.47;;;;;9.70;96262.00;;;;8324514;28;20657;-72
2022/06/21 03:01:10;;;;;;;3.87;2.50;;;;;9.70;96269.00;;;;8348521;23;20897;-71
2022/06/21 03:05:17;;;;;;;4.03;2.10;;;;;9.60;96279.00;;;;8344952;28;20205;-72
2022/06/21 03:09:24;;;;;;;3.50;2.20;;;;;9.40;96277.00;;;;8358380;28;20862;-72
2022/06/21 03:13:30;;;;;;;2.80;2.40;;;;;9.20;96273.00;;;;8353800;28;20200;-72
2022/06/21 03:17:45;;;;;;;3.27;2.60;;;;;9.10;96272.00;;;;8354265;28;20220;-73
2022/06/21 03:21:48;;;;;;;4.33;2.60;;;;;9.30;96254.00;;;;8351238;28;20660;-72
2022/06/21 03:25:57;;;;;;;2.50;2.30;;;;;9.30;96261.00;;;;8348841;28;20205;-72
2022/06/21 03:30:01;;;;;;;4.40;2.20;;;;;9.30;96267.00;;;;8351269;28;20211;-72
2022/06/21 03:34:08;;;;;;;4.80;2.27;;;;;9.20;96262.00;;;;8355890;28;20689;-71
2022/06/21 03:38:11;;;;;;;6.50;3.00;;;;;9.30;96253.00;;;;8349100;28;20685;-72
2022/06/21 03:42:18;;;;;;;3.50;2.47;;;;;9.50;96251.00;;;;8341078;28;20186;-72
2022/06/21 03:46:26;;;;;;;3.87;2.60;;;;;9.60;96253.00;;;;8349557;28;20302;-72
2022/06/21 03:50:35;;;;;;;4.83;3.23;;;;;9.90;96253.00;;;;8353721;28;20212;-72
2022/06/21 03:54:44;;;;;;;3.50;2.37;;;;;10.10;96272.00;;;;8340922;28;20200;-73
2022/06/21 03:58:54;;;;;;;2.00;1.90;;;;;10.20;96288.00;;;;8344653;28;20254;-73
2022/06/21 04:03:02;;;;;;;5.00;2.40;;;;;10.30;96284.00;;;;8332440;28;20300;-72
2022/06/21 04:07:13;;;;;;;3.23;2.60;;;;;10.60;96287.00;;;;8323060;28;20603;-72
2022/06/21 04:11:22;;;;;;;2.70;2.50;;;;;11.10;96289.00;;;;8325090;28;20292;-73
2022/06/21 04:15:30;;;;;;;6.33;2.20;;;;;11.60;96296.00;;;;8327096;28;20279;-72
2022/06/21 04:19:37;;;;;;;2.77;2.20;;;;;12.20;96291.00;;;;8313700;28;20679;-71
2022/06/21 04:23:44;;;;;;;3.97;2.40;;;;;12.70;96290.00;;;;8323207;28;20198;-70
2022/06/21 04:27:52;;;;;;;2.73;2.40;;;;;13.10;96290.00;;;;8321611;28;20680;-70
2022/06/21 04:32:02;;;;;;;4.83;2.20;;;;;13.70;96289.00;;;;8322469;28;20220;-72
2022/06/21 04:36:11;;;;;;;2.85;1.83;;;;;14.30;96288.00;;;;8322084;28;20277;-72
2022/06/21 04:40:23;;;;;;;2.20;2.10;;;;;14.90;96291.00;;;;8319620;28;20317;-72
2022/06/21 04:44:30;;;;;;;4.28;2.17;;;;;15.40;96279.00;;;;8322116;28;20206;-72
2022/06/21 04:48:42;;;;;;;6.18;2.47;;;;;15.50;96279.00;;;;8319535;28;20243;-73
2022/06/21 04:52:57;;;;;;;4.82;2.10;;;;;15.40;96279.00;;;;8320700;28;20578;-72
2022/06/21 04:57:06;;;;;;;5.13;2.50;;;;;15.30;96274.00;;;;8321981;28;20223;-73
2022/06/21 05:05:32;;;;;;;10.68;3.63;;;;;15.50;96277.00;;;;8318000;28;20205;-71
2022/06/21 05:09:36;;;;;;;7.82;4.03;;;;;15.60;96276.00;;;;8314399;28;20206;-72
2022/06/21 05:13:42;;;;;;;8.07;4.65;;;;;15.80;96275.00;;;;8319362;28;20193;-72
2022/06/21 05:17:50;;;;;;;9.13;4.70;;;;;16.20;96279.00;;;;8306872;28;20853;-72
2022/06/21 05:21:59;;;;;;;7.13;2.97;;;;;16.50;96288.00;;;;8316496;28;20202;-72
2022/06/21 05:26:09;;;;;;;6.97;3.25;;;;;16.90;96278.00;;;;8303768;28;20194;-73
2022/06/21 05:30:17;;;;;;;6.40;3.15;;;;;17.50;96267.00;;;;8315326;28;20304;-73
2022/06/21 05:34:24;;;;;;;6.38;3.40;;;;;18.10;96252.00;;;;8304523;28;20209;-72
2022/06/21 05:38:32;;;;;;;4.32;2.22;;;;;18.70;96258.00;;;;8306033;28;20224;-73
2022/06/21 05:42:35;;;;;;;5.70;2.28;;;;;18.80;96262.00;;;;8318140;28;20193;-72
2022/06/21 05:46:43;;;;;;;7.60;2.10;;;;;18.70;96264.00;;;;8298419;28;20198;-72
2022/06/21 05:50:47;;;;;;;3.55;2.50;;;;;18.80;96264.00;;;;8314963;28;20281;-73
2022/06/21 05:54:57;;;;;;;3.03;1.98;;;;;19.20;96284.00;;;;8309360;28;20813;-72
2022/06/21 05:59:02;;;;;;;10.30;2.22;;;;;19.20;96270.00;;;;8310113;28;20718;-72
2022/06/21 06:03:12;;;;;;;3.53;2.10;;;;;19.10;96271.00;;;;8319656;28;20309;-72
2022/06/21 06:07:19;;;;;;;7.70;2.60;;;;;19.70;96266.00;;;;8305756;28;20208;-72
2022/06/21 06:11:57;;;;;;;2.33;2.10;;;;;20.20;96274.00;;;;8319020;28;20285;-75
2022/06/21 06:15:53;;;;;;;4.15;2.17;;;;;20.70;96282.00;;;;8303627;28;20194;-72
2022/06/21 06:20:02;;;;;;;3.58;1.85;;;;;20.70;96285.00;;;;8308865;28;20296;-72
2022/06/21 06:24:13;;;;;;;6.85;2.13;;;;;21.00;96292.00;;;;8312755;28;20212;-72
2022/06/21 06:28:24;;;;;;;3.38;2.15;;;;;21.00;96287.00;;;;8310734;28;20190;-72
2022/06/21 06:32:32;;;;;;;2.83;2.17;;;;;21.20;96290.00;;;;8316751;28;20205;-72
2022/06/21 06:36:40;;;;;;;6.25;2.30;;;;;20.90;96291.00;;;;8320330;28;20225;-71
2022/06/21 06:40:47;;;;;;;5.15;2.33;;;;;21.00;96286.00;;;;8303642;28;20232;-73
2022/06/21 06:44:57;;;;;;;6.07;2.85;;;;;21.60;96298.00;;;;8317501;28;20977;-72
2022/06/21 06:49:12;;;;;;;3.40;2.08;;;;;21.50;96289.00;;;;8324802;28;20220;-72
2022/06/21 06:53:19;;;;;;;6.45;2.83;;;;;21.90;96295.00;;;;8316499;28;20289;-72
2022/06/21 06:57:35;;;;;;;11.05;3.00;;;;;22.00;96315.00;;;;8320113;28;20680;-70
2022/06/21 07:01:46;;;;;;;8.88;2.65;;;;;21.90;96331.00;;;;8307080;28;20252;-72
2022/06/21 07:05:56;;;;;;;6.15;3.10;;;;;22.00;96329.00;;;;8303277;28;20193;-72
2022/06/21 07:10:04;;;;;;;8.20;2.97;;;;;22.50;96333.00;;;;8308491;28;20200;-72
2022/06/21 07:14:14;;;;;;;8.02;2.75;;;;;23.20;96341.00;;;;8310061;28;20209;-72
2022/06/21 07:18:28;;;;;;;10.48;3.13;;;;;23.50;96334.00;;;;8308044;28;20641;-71
2022/06/21 07:22:40;;;;;;;11.73;3.00;;;;;23.60;96334.00;;;;8311949;28;20245;-72
2022/06/21 07:26:48;;;;;;;5.72;2.53;;;;;23.90;96324.00;;;;8314457;28;20208;-72
2022/06/21 07:30:54;;;;;;;5.85;2.60;;;;;23.90;96321.00;;;;8305480;28;20228;-71
2022/06/21 07:35:03;;;;;;;7.13;2.55;;;;;24.40;96314.00;;;;8321276;28;20221;-72
2022/06/21 07:39:12;;;;;;;5.45;2.60;;;;;24.30;96301.00;;;;8304885;28;20304;-71
2022/06/21 07:43:25;;;;;;;5.78;2.60;;;;;24.30;96302.00;;;;8313306;28;20201;-71
2022/06/21 07:47:35;;;;;;;8.93;2.88;;;;;24.80;96295.00;;;;8318451;28;20288;-71
2022/06/21 07:51:44;;;;;;;3.47;3.05;;;;;25.00;96298.00;;;;8317114;28;20205;-71
2022/06/21 07:55:51;;;;;;;4.88;2.78;;;;;24.80;96296.00;;;;8319666;28;20781;-71
2022/06/21 08:00:00;;;;;;;9.35;2.65;;;;;25.30;96295.00;;;;8311790;28;20224;-71
2022/06/21 08:08:50;;;;;;;5.95;2.58;;;;;25.30;96309.00;;;;8326367;28;20266;-71
2022/06/21 08:12:55;;;;;;;4.57;2.30;;;;;25.90;96306.00;;;;8312301;28;20205;-71
2022/06/21 08:17:06;;;;;;;4.75;2.28;;;;;26.10;96307.00;;;;8316308;28;20194;-70
2022/06/21 08:21:13;;;;;;;6.65;2.42;;;;;27.30;96317.00;;;;8313411;28;20256;-71
2022/06/21 08:25:26;;;;;;;4.15;2.58;;;;;27.90;96324.00;;;;8310779;28;20281;-71
2022/06/21 08:29:34;;;;;;;5.47;2.83;;;;;27.60;96329.00;;;;8309823;28;20284;-71
2022/06/21 08:33:42;;;;;;;5.10;2.20;;;;;27.60;96324.00;;;;8316812;28;20229;-71
2022/06/21 08:37:52;;;;;;;3.63;2.30;;;;;28.00;96338.00;;;;8312002;28;20289;-70
2022/06/21 08:42:21;;;;;;;4.15;1.98;;;;;28.20;96334.00;;;;8304362;28;20223;-70
2022/06/21 08:47:00;;;;;;;2.70;1.92;;;;;29.00;96328.00;;;;8311783;28;20198;-71
2022/06/21 08:51:31;;;;;;;4.63;2.45;;;;;29.40;96318.00;;;;8315259;28;20233;-71
2022/06/21 08:55:40;;;;;;;2.72;1.73;;;;;29.60;96318.00;;;;8312138;28;20725;-71
2022/06/21 08:59:56;;;;;;;2.72;1.80;;;;;29.70;96326.00;;;;8311653;28;20320;-69
2022/06/21 09:04:10;;;;;;;3.38;1.70;;;;;29.60;96327.00;;;;8299753;28;20301;-71
2022/06/21 09:08:30;;;;;;;5.03;2.05;;;;;29.60;96333.00;;;;8306542;28;20821;-71
2022/06/21 09:12:42;;;;;;;3.13;1.92;;;;;29.90;96310.00;;;;8305343;28;20623;-70
2022/06/21 09:16:57;;;;;;;2.95;2.03;;;;;29.90;96309.00;;;;8308975;28;20208;-71
2022/06/21 09:21:08;;;;;;;5.18;1.90;;;;;29.40;96296.00;;;;8311567;28;20261;-71
2022/06/21 09:25:18;;;;;;;2.75;1.88;;;;;29.60;96316.00;;;;8308581;28;20284;-70
2022/06/21 09:29:28;;;;;;;8.25;2.10;;;;;29.80;96316.00;;;;8306362;28;20205;-71
2022/06/21 09:33:47;;;;;;;4.70;2.42;;;;;30.20;96316.00;;;;8306714;28;20233;-70
2022/06/21 09:38:01;;;;;;;6.53;1.75;;;;;31.00;96317.00;;;;8306299;28;20689;-69
2022/06/21 09:42:21;;;;;;;1.70;1.60;;;;;31.90;96308.00;;;;8311165;28;20232;-71
2022/06/21 09:46:37;;;;;;;4.30;1.60;;;;;32.70;96299.00;;;;8294853;28;20205;-71
2022/06/21 09:50:52;;;;;;;4.00;1.88;;;;;33.10;96293.00;;;;8310512;28;20198;-71
2022/06/21 09:55:04;;;;;;;3.65;1.98;;;;;33.30;96299.00;;;;8302388;28;20198;-70
2022/06/21 09:59:14;;;;;;;6.72;2.00;;;;;34.20;96298.00;;;;8325504;28;20320;-71
2022/06/21 10:03:34;;;;;;;5.75;1.92;;;;;34.50;96307.00;;;;8323574;28;20621;-71
2022/06/21 10:08:00;;;;;;;4.65;1.88;;;;;34.60;96302.00;;;;8320518;28;20366;-70
2022/06/21 10:12:25;;;;;;;3.17;1.83;;;;;34.30;96285.00;;;;8322742;28;20213;-70
2022/06/21 10:17:03;;;;;;;1.98;1.70;;;;;33.30;96278.00;;;;8324899;28;20261;-71
2022/06/21 10:21:34;;;;;;;4.47;1.65;;;;;32.80;96277.00;;;;8326445;28;20229;-71
2022/06/21 10:25:52;;;;;;;4.90;2.10;;;;;32.50;96274.00;;;;8323122;28;20212;-71
2022/06/21 10:30:24;;;;;;;6.15;1.95;;;;;32.40;96268.00;;;;8323977;28;20197;-69
2022/06/21 10:34:50;;;;;;;2.25;1.50;;;;;32.80;96261.00;;;;8288782;28;20240;-69
2022/06/21 10:39:10;;;;;;;3.80;1.58;;;;;33.20;96246.00;;;;8300052;28;20211;-69
2022/06/21 10:43:43;;;;;;;2.85;1.80;;;;;33.60;96256.00;;;;8323184;28;20202;-71
2022/06/21 10:48:11;;;;;;;2.47;1.50;;;;;33.90;96247.00;;;;8318947;28;20189;-69
2022/06/21 10:52:43;;;;;;;2.92;1.58;;;;;34.20;96236.00;;;;8310302;28;20573;-70
2022/06/21 10:57:13;;;;;;;4.80;1.75;;;;;34.30;96232.00;;;;8318977;28;20698;-69
2022/06/21 11:01:25;;;;;;;6.05;1.65;;;;;34.70;96231.00;;;;8333505;28;20242;-70
2022/06/21 11:05:37;;;;;;;4.70;1.50;;;;;34.70;96236.00;;;;8315285;28;20201;-70
2022/06/21 11:09:47;;;;;;;1.85;1.50;;;;;35.00;96218.00;;;;8323103;28;20296;-72
2022/06/21 11:14:01;;;;;;;2.03;1.60;;;;;35.20;96215.00;;;;8323296;28;20200;-68
2022/06/21 11:18:20;;;;;;;3.90;1.52;;;;;35.20;96216.00;;;;8322590;28;20232;-69
2022/06/21 11:22:42;;;;;;;1.50;1.40;;;;;34.90;96208.00;;;;8321757;28;20225;-69
2022/06/21 11:26:56;;;;;;;1.50;1.40;;;;;34.70;96209.00;;;;8323105;28;20216;-69
2022/06/21 11:31:06;;;;;;;1.40;1.35;;;;;35.10;96209.00;;;;8324559;28;20769;-70
2022/06/21 11:35:26;;;;;;;2.53;1.27;;;;;34.90;96207.00;;;;8322277;28;20204;-69
2022/06/21 11:39:36;;;;;;;2.35;1.20;;;;;34.50;96210.00;;;;8322166;28;20233;-70
2022/06/21 11:44:02;;;;;;;4.05;1.48;;;;;34.80;96211.00;;;;8324665;28;20293;-69
2022/06/21 11:48:45;;;;;;;4.32;1.30;;;;;35.10;96212.00;;;;8322461;28;20700;-69
2022/06/21 11:53:10;;;;;;;4.22;1.30;;;;;35.60;96217.00;;;;8315464;28;20315;-68
2022/06/21 11:57:19;;;;;;;4.38;1.38;;;;;34.70;96219.00;;;;8323420;28;20786;-70
2022/06/21 12:01:29;;;;;;;3.17;1.30;;;;;33.80;96214.00;;;;8320816;28;20329;-69
2022/06/21 12:05:39;;;;;;;3.03;1.25;;;;;33.90;96213.00;;;;8323361;28;20200;-69
2022/06/21 12:09:56;;;;;;;4.30;1.17;;;;;34.30;96210.00;;;;8318404;28;20295;-69
2022/06/21 12:14:25;;;;;;;4.53;1.38;;;;;34.10;96210.00;;;;8315803;28;20278;-70
2022/06/21 12:18:31;;;;;;;1.38;1.27;;;;;34.30;96210.00;;;;8307244;28;20647;-68
2022/06/21 12:22:39;;;;;;;1.25;1.20;;;;;35.00;96196.00;;;;8315586;28;20229;-70
2022/06/21 12:26:45;;;;;;;2.13;1.38;;;;;35.10;96196.00;;;;8302172;28;20288;-70
2022/06/21 12:30:49;;;;;;;1.63;1.45;;;;;34.80;96183.00;;;;8307812;28;20277;-69
2022/06/21 12:35:01;;;;;;;1.92;1.60;;;;;34.40;96183.00;;;;8326900;28;20289;-70
2022/06/21 12:39:11;;;;;;;1.52;1.42;;;;;34.70;96170.00;;;;8304805;28;20197;-69
2022/06/21 12:43:31;;;;;;;4.03;1.42;;;;;35.10;96157.00;;;;8308699;28;20230;-69
2022/06/21 12:47:46;;;;;;;5.47;1.65;;;;;35.40;96166.00;;;;8315761;28;20288;-69
2022/06/21 12:51:56;;;;;;;2.95;1.20;;;;;35.30;96168.00;;;;8304564;28;20197;-70
2022/06/21 12:56:09;;;;;;;1.23;1.13;;;;;35.00;96175.00;;;;8316148;28;20747;-69
2022/06/21 13:00:21;;;;;;;1.50;1.33;;;;;34.90;96170.00;;;;8304228;28;20316;-70
2022/06/21 13:04:45;;;;;;;1.75;1.50;;;;;35.00;96174.00;;;;8308206;28;20621;-70
2022/06/21 13:09:12;;;;;;;1.60;1.50;;;;;34.80;96172.00;;;;8311588;28;20204;-70
2022/06/21 13:13:31;;;;;;;1.58;1.23;;;;;35.00;96162.00;;;;8297084;28;20198;-69
2022/06/21 13:18:04;;;;;;;1.92;1.30;;;;;35.80;96142.00;;;;8318250;28;20273;-69
2022/06/21 13:22:26;;;;;;;2.05;1.50;;;;;36.30;96130.00;;;;8310517;28;20213;-69
2022/06/21 13:27:02;;;;;;;1.77;1.40;;;;;36.30;96115.00;;;;8312741;28;20235;-70
2022/06/21 13:31:10;;;;;;;2.88;1.48;;;;;35.90;96093.00;;;;8307897;28;20207;-69
2022/06/21 13:35:21;;;;;;;4.13;1.48;;;;;34.90;96081.00;;;;8313705;28;20241;-68
2022/06/21 13:39:36;;;;;;;3.08;1.40;;;;;34.70;96073.00;;;;8317843;28;20300;-69
2022/06/21 13:43:43;;;;;;;2.40;1.55;;;;;34.60;96075.00;;;;8318148;28;20227;-70
2022/06/21 13:48:02;;;;;;;3.25;1.30;;;;;34.70;96074.00;;;;8319726;28;20201;-68
2022/06/21 13:52:15;;;;;;;1.50;1.40;;;;;35.10;96075.00;;;;8310363;28;20203;-69
2022/06/21 13:56:46;;;;;;;3.08;1.38;;;;;36.10;96054.00;;;;8317996;28;20206;-69
2022/06/21 14:00:58;;;;;;;3.70;1.48;;;;;36.60;96059.00;;;;8315035;28;20591;-69
2022/06/21 14:05:07;;;;;;;3.30;1.40;;;;;36.50;96051.00;;;;8325915;28;20198;-69
2022/06/21 14:09:18;;;;;;;2.00;1.58;;;;;37.10;96062.00;;;;8322820;28;20202;-69
2022/06/21 14:13:27;;;;;;;1.85;1.33;;;;;37.00;96055.00;;;;8330160;28;20280;-68
2022/06/21 14:17:38;;;;;;;3.20;1.50;;;;;37.00;96064.00;;;;8322432;28;20209;-69
2022/06/21 14:21:46;;;;;;;1.88;1.30;;;;;37.00;96066.00;;;;8324944;28;20230;-69
2022/06/21 14:25:55;;;;;;;1.10;1.10;;;;;37.20;96052.00;;;;8324322;28;20285;-69
2022/06/21 14:30:04;;;;;;;3.08;1.60;;;;;37.50;96046.00;;;;8325536;28;20190;-68
2022/06/21 14:34:34;;;;;;;2.65;1.50;;;;;37.40;96050.00;;;;8305420;28;20198;-69
2022/06/21 14:38:45;;;;;;;1.25;1.20;;;;;37.40;96066.00;;;;8325689;28;20206;-69
2022/06/21 14:42:53;;;;;;;1.33;1.25;;;;;37.50;96071.00;;;;8325437;28;20833;-68
2022/06/21 14:47:03;;;;;;;2.58;1.35;;;;;37.30;96051.00;;;;8324533;28;20731;-69
2022/06/21 14:51:13;;;;;;;1.55;1.33;;;;;37.00;96060.00;;;;8325380;28;20202;-69
2022/06/21 14:55:27;;;;;;;4.95;1.80;;;;;37.00;96040.00;;;;8325687;28;20201;-69
2022/06/21 15:00:07;;;;;;;3.20;1.45;;;;;36.80;96029.00;;;;8316363;28;20190;-68
2022/06/21 15:04:21;;;;;;;5.15;1.50;;;;;37.00;96027.00;;;;8308069;28;20261;-69
2022/06/21 15:08:36;;;;;;;3.45;1.85;;;;;37.20;96016.00;;;;8313247;28;20197;-68
2022/06/21 15:12:44;;;;;;;1.60;1.50;;;;;36.70;96005.00;;;;8307849;28;20204;-68
2022/06/21 15:17:03;;;;;;;2.97;1.42;;;;;36.00;95994.00;;;;8307177;28;20280;-67
2022/06/21 15:21:10;;;;;;;5.65;1.50;;;;;35.80;95982.00;;;;8321387;28;20259;-69
2022/06/21 15:25:26;;;;;;;2.13;1.58;;;;;35.90;95990.00;;;;8319379;28;20280;-68
2022/06/21 15:29:37;;;;;;;6.05;1.70;;;;;36.00;95977.00;;;;8317218;28;20245;-68
2022/06/21 15:33:46;;;;;;;2.20;1.50;;;;;36.20;95974.00;;;;8313835;28;20670;-69
2022/06/21 15:37:53;;;;;;;2.33;1.58;;;;;36.10;95978.00;;;;8310385;28;20200;-70
2022/06/21 15:42:03;;;;;;;1.70;1.60;;;;;36.10;95964.00;;;;8321627;28;20225;-71
2022/06/21 15:46:10;;;;;;;3.63;1.55;;;;;36.30;95967.00;;;;8308779;28;20190;-70
2022/06/21 15:50:37;;;;;;;5.65;2.17;;;;;36.00;95972.00;;;;8314168;28;20201;-70
2022/06/21 15:54:44;;;;;;;3.15;1.92;;;;;35.90;95990.00;;;;8317275;28;20296;-68
2022/06/21 15:58:58;;;;;;;5.00;1.45;;;;;35.80;96000.00;;;;8314635;28;20235;-68
2022/06/21 16:03:07;;;;;;;4.40;1.70;;;;;35.80;96007.00;;;;8325020;28;20654;-68
2022/06/21 16:07:19;;;;;;;3.95;1.77;;;;;35.80;96011.00;;;;8316616;28;20208;-69
2022/06/21 16:11:27;;;;;;;3.92;1.60;;;;;36.00;96005.00;;;;8314158;28;20229;-68
2022/06/21 16:15:33;;;;;;;2.55;1.60;;;;;36.20;95995.00;;;;8319200;28;20832;-69
2022/06/21 16:19:46;;;;;;;9.13;1.67;;;;;36.50;96000.00;;;;8325331;28;20201;-68
2022/06/21 16:23:56;;;;;;;3.20;1.30;;;;;36.40;95989.00;;;;8320242;28;20221;-68
2022/06/21 16:28:06;;;;;;;2.53;1.50;;;;;36.60;95990.00;;;;8320553;28;20670;-69
2022/06/21 16:36:40;;;;;;;1.70;1.60;;;;;36.50;96007.00;;;;8323878;28;20312;-69
2022/06/21 16:45:25;;;;;;;6.75;1.48;;;;;36.40;95986.00;;;;8304802;28;20272;-69
2022/06/21 16:49:33;;;;;;;5.75;1.50;;;;;36.20;95974.00;;;;8318471;28;20301;-70
2022/06/21 16:53:41;;;;;;;2.10;1.55;;;;;36.30;95982.00;;;;8298932;28;20610;-69
2022/06/21 16:57:48;;;;;;;2.17;1.50;;;;;36.60;95977.00;;;;8305138;28;20276;-69
2022/06/21 17:01:55;;;;;;;4.60;1.80;;;;;36.50;95974.00;;;;8306165;28;20236;-69
2022/06/21 17:05:58;;;;;;;1.73;1.45;;;;;36.40;95977.00;;;;8318713;28;20292;-69
2022/06/21 17:10:04;;;;;;;3.60;1.60;;;;;36.40;95965.00;;;;8308138;28;20190;-69
2022/06/21 17:14:09;;;;;;;3.45;1.70;;;;;36.50;95967.00;;;;8311503;28;20298;-69
2022/06/21 17:18:19;;;;;;;3.42;2.47;;;;;36.80;95967.00;;;;8311233;28;20305;-69
2022/06/21 17:22:31;;;;;;;4.47;1.50;;;;;36.70;95973.00;;;;8309597;28;20251;-69
2022/06/21 17:26:49;;;;;;;2.08;1.60;;;;;36.60;95980.00;;;;8314167;28;20192;-69
2022/06/21 17:30:59;;;;;;;1.67;1.58;;;;;36.80;95992.00;;;;8312410;28;20208;-69
2022/06/21 17:35:08;;;;;;;2.83;1.52;;;;;36.60;96002.00;;;;8301886;28;20205;-69
2022/06/21 17:39:21;;;;;;;1.38;1.27;;;;;36.30;96000.00;;;;8313361;28;20278;-68
2022/06/21 17:43:31;;;;;;;6.93;1.50;;;;;36.00;95997.00;;;;8305267;28;20209;-69
2022/06/21 17:47:39;;;;;;;5.50;1.65;;;;;35.70;96008.00;;;;8312389;28;20539;-69
2022/06/21 17:51:47;;;;;;;1.98;1.50;;;;;35.70;96010.00;;;;8303846;28;20210;-68
2022/06/21 17:55:57;;;;;;;1.58;1.48;;;;;35.20;95991.00;;;;8316495;28;20212;-69
2022/06/21 18:00:01;;;;;;;1.55;1.45;;;;;34.30;95994.00;;;;8318267;28;20210;-69
2022/06/21 18:04:11;;;;;;;2.58;1.50;;;;;33.30;95988.00;;;;8299048;28;20228;-69
2022/06/21 18:08:25;;;;;;;2.15;1.50;;;;;32.30;95975.00;;;;8306238;28;20202;-68
2022/06/21 18:12:39;;;;;;;6.00;1.77;;;;;31.40;95957.00;;;;8323706;28;20197;-69
2022/06/21 18:16:55;;;;;;;1.33;1.23;;;;;30.60;95940.00;;;;8310828;28;20211;-68
2022/06/21 18:21:03;;;;;;;1.65;1.42;;;;;29.90;95938.00;;;;8327574;28;20185;-67
2022/06/21 18:25:13;;;;;;;2.95;1.60;;;;;29.30;95943.00;;;;8326055;28;20646;-69
2022/06/21 18:29:26;;;;;;;6.03;2.05;;;;;28.80;95947.00;;;;8325240;28;20659;-68
2022/06/21 18:33:31;;;;;;;1.50;1.40;;;;;28.50;95947.00;;;;8309915;28;20194;-69
2022/06/21 18:38:07;;;;;;;1.52;1.42;;;;;28.10;95958.00;;;;8316672;28;20283;-68
2022/06/21 18:42:19;;;;;;;4.15;1.55;;;;;27.70;95963.00;;;;8303124;28;20309;-70
2022/06/21 18:46:33;;;;;;;2.85;2.00;;;;;27.40;95962.00;;;;8327552;28;20663;-69
2022/06/21 18:50:42;;;;;;;2.75;1.58;;;;;27.10;95947.00;;;;8319840;28;20268;-69
2022/06/21 18:55:08;;;;;;;2.95;1.88;;;;;26.80;95950.00;;;;8319884;28;20287;-69
2022/06/21 18:59:24;;;;;;;2.58;1.60;;;;;26.50;95944.00;;;;8311299;28;20261;-68
2022/06/21 19:03:35;;;;;;;3.28;2.10;;;;;26.10;95946.00;;;;8308738;28;21178;-68
2022/06/21 19:12:24;;;;;;;2.38;1.73;;;;;25.10;95941.00;;;;8316666;28;20577;-69
2022/06/21 19:16:56;;;;;;;1.95;1.85;;;;;24.60;95941.00;;;;8315057;28;20200;-69
2022/06/21 19:21:06;;;;;;;3.50;2.00;;;;;24.00;95936.00;;;;8316828;28;20636;-70
2022/06/21 19:25:35;;;;;;;10.77;2.28;;;;;23.50;95929.00;;;;8318296;28;20225;-71
2022/06/21 19:30:05;;;;;;;4.07;1.70;;;;;23.10;95940.00;;;;8311496;28;20204;-70
2022/06/21 19:34:38;;;;;;;2.58;1.70;;;;;22.70;95927.00;;;;8307955;28;20306;-70
2022/06/21 19:38:57;;;;;;;2.10;1.85;;;;;22.30;95930.00;;;;8314436;28;20914;-71
2022/06/21 19:43:21;;;;;;;5.45;1.90;;;;;22.00;95925.00;;;;8307779;28;20304;-71
2022/06/21 19:47:34;;;;;;;3.35;2.10;;;;;21.80;95917.00;;;;8311942;28;20219;-69
2022/06/21 19:51:58;;;;;;;2.35;1.77;;;;;21.40;95924.00;;;;8310176;28;20275;-70
2022/06/21 19:56:02;;;;;;;3.67;2.00;;;;;21.30;95923.00;;;;8315649;28;20750;-72
2022/06/21 20:00:25;;;;;;;1.92;1.83;;;;;21.00;95915.00;;;;8321005;28;20208;-71
2022/06/21 20:05:10;;;;;;;2.38;2.00;;;;;21.00;95925.00;;;;8307778;28;20762;-70
2022/06/21 20:09:29;;;;;;;2.35;2.00;;;;;20.80;95937.00;;;;8309594;28;20288;-70
2022/06/21 20:13:40;;;;;;;2.80;1.80;;;;;20.80;95959.00;;;;8307213;28;20199;-70
2022/06/21 20:17:48;;;;;;;1.80;1.70;;;;;20.90;95979.00;;;;8328986;28;20279;-70
2022/06/21 20:22:04;;;;;;;4.07;2.00;;;;;20.90;95973.00;;;;8312105;28;20666;-69
2022/06/21 20:26:27;;;;;;;6.53;2.50;;;;;20.80;95975.00;;;;8328197;28;20224;-73
2022/06/21 20:30:34;;;;;;;3.05;2.00;;;;;20.60;95993.00;;;;8321904;28;20197;-71
2022/06/21 20:34:41;;;;;;;2.25;2.10;;;;;20.40;95986.00;;;;8317056;28;20258;-73
2022/06/21 20:38:52;;;;;;;3.83;2.00;;;;;20.20;95993.00;;;;8310837;28;20205;-67
2022/06/21 20:43:15;;;;;;;3.42;2.22;;;;;20.00;95985.00;;;;8317832;28;20702;-67
2022/06/21 20:47:56;;;;;;;2.47;2.28;;;;;19.80;95987.00;;;;8312227;28;20803;-67
2022/06/21 20:52:24;;;;;;;2.78;2.13;;;;;19.70;95984.00;;;;8322746;28;20229;-67
2022/06/21 20:56:29;;;;;;;4.53;2.22;;;;;19.60;95977.00;;;;8318602;28;20204;-68
2022/06/21 21:00:41;;;;;;;3.25;2.55;;;;;19.50;95970.00;;;;8313400;28;20707;-67
2022/06/21 21:04:53;;;;;;;3.15;2.58;;;;;19.40;95971.00;;;;8327178;28;20866;-68
2022/06/21 21:09:01;;;;;;;7.30;2.75;;;;;19.30;95965.00;;;;8319816;28;20194;-68
2022/06/21 21:13:10;;;;;;;2.58;2.38;;;;;19.10;95955.00;;;;8319454;28;20202;-67
2022/06/21 21:17:20;;;;;;;3.20;2.38;;;;;19.00;95943.00;;;;8317582;28;20198;-67
2022/06/21 21:21:30;;;;;;;4.03;2.60;;;;;19.00;95948.00;;;;8317977;28;20284;-67
2022/06/21 21:25:38;;;;;;;7.40;2.92;;;;;18.80;95936.00;;;;8318190;28;20606;-68
2022/06/21 21:29:45;;;;;;;2.63;2.42;;;;;18.70;95934.00;;;;8320395;28;20295;-67